Lamar, Mississippi
Current Conditions -  °F | °C
As of 1:50 PM on Sunday 25 Jan 2015 (Local Time) from KOLV Reporting Station
Scattered Clouds Scattered Clouds  
Wind Chill: 54°   Ceiling: Unl
Heat Index: 54°   Visibility: 10mi
Dew Point: 43°   Wind: 9mph
Humidity: 67%   Direction: 260°W
Pressure: 29.69"   Gusts: NA
Location:  34.92°N, 89.32°W
Report Text: KOLV 251950Z 26008KT 10SM SCT030 12/06 A2969
Loading
Personal Weather Stations






























Interactive Weather Map New forecast layout! Learn more

10-Day Weather Forecast

Advertisements
Track Severe Weather on mobile